Wednesday, August 15, 2018, 4:50 AM GMT
Back to Local

CWTY, Trois Rivieres

Location: , , Canada Lat: 46.35
Local Time: 4:50 AM GMT ( 4:50 GMT) Lon: -72.517
Time Zone: GMT Elev: 19 ft

Show me the last for .
Show Coded

Time T Td Feel RH Dir Speed Gust Alt SLP Vis Weather Sky Remarks
2018-08-15 04:00 75 69 79 81 200° 6 - - 29.75 0 None
2018-08-15 03:00 76 69 80 79 210° 3 - - 29.75 0 None
2018-08-15 02:00 77 70 81 79 170° 3 - - 29.75 0 None
2018-08-15 01:00 78 68 81 72 290° 2 - - 29.74 0 None
2018-08-15 00:00 79 71 83 75 210° 6 - - 29.73 0 None
2018-08-14 23:00 79 73 84 83 200° 6 - - 29.74 0 None
2018-08-14 22:00 80 71 85 74 200° 6 - - 29.74 0 None
2018-08-14 21:00 80 69 84 67 210° 6 - - 29.75 0 None
2018-08-14 20:00 83 65 86 54 230° 5 - - 29.77 0 None
2018-08-14 19:00 81 69 84 66 220° 6 - - 29.79 0 None
2018-08-14 18:00 81 67 84 62 210° 7 - - 29.80 0 None
2018-08-14 17:00 81 69 85 66 60° 2 - - 29.82 0 None
2018-08-14 16:00 79 71 83 76 80° 3 - - 29.83 0 None
2018-08-14 15:00 80 70 83 71 60° 1 - - 29.85 0 None
2018-08-14 14:00 78 69 81 75 60° 3 - - 29.87 0 None
2018-08-14 13:00 73 68 77 83 50° 3 - - 29.88 0 None
2018-08-14 12:00 70 65 76 83 360° 2 - - 29.89 0 None
2018-08-14 11:00 68 64 - 85 10° 2 - - 29.89 0 None
2018-08-14 10:00 68 64 - 86 20° 2 - - 29.89 0 None
2018-08-14 09:00 68 64 - 86 340° 3 - - 29.90 0 None
2018-08-14 08:00 69 65 - 86 20° 1 - - 29.89 0 None
2018-08-14 07:00 70 65 - 83 20° 2 - - 29.90 0 None
2018-08-14 06:00 72 65 76 79 10° 1 - - 29.91 0 None
2018-08-14 05:00 73 68 77 82 280° 1 - - 29.92 0 None

Support USWX by starting your Amazon purchase here.